Time;durP1;ratioP1;P1;durP2;ratioP2;P2;SDS_P1;SDS_P2;PMS_P1;PMS_P2;Temp;Humidity;BMP_temperature;BMP_pressure;BME280_temperature;BME280_humidity;BME280_pressure;Samples;Min_cycle;Max_cycle;Signal;HPM_P1;HPM_P2
2021/10/16 00:00:15;;;;;;;25.33;7.67;;;6.00;99.90;;;;;;5020077;28;20397;-80
2021/10/16 00:02:41;;;;;;;26.02;8.85;;;6.00;99.90;;;;;;5016857;28;20443;-78
2021/10/16 00:05:07;;;;;;;24.27;8.27;;;5.90;99.90;;;;;;5015263;28;20401;-79
2021/10/16 00:07:32;;;;;;;19.83;7.63;;;5.90;99.90;;;;;;5016567;28;20396;-78
2021/10/16 00:09:58;;;;;;;19.93;8.13;;;6.10;99.90;;;;;;5017552;28;20389;-77
2021/10/16 00:12:24;;;;;;;20.60;7.70;;;6.00;99.90;;;;;;5016907;28;20389;-79
2021/10/16 00:14:50;;;;;;;22.73;7.47;;;5.90;99.90;;;;;;5017452;28;20392;-78
2021/10/16 00:17:16;;;;;;;19.20;7.30;;;5.90;99.90;;;;;;5025249;28;20407;-75
2021/10/16 00:19:41;;;;;;;26.07;7.27;;;5.80;99.90;;;;;;5033433;28;20393;-75
2021/10/16 00:22:07;;;;;;;24.57;8.37;;;5.80;99.90;;;;;;5034270;28;20396;-79
2021/10/16 00:24:33;;;;;;;20.08;8.38;;;5.80;99.90;;;;;;5034634;28;20391;-78
2021/10/16 00:26:59;;;;;;;26.75;9.60;;;5.70;99.90;;;;;;5033319;28;20385;-77
2021/10/16 00:29:25;;;;;;;17.20;7.20;;;5.70;99.90;;;;;;5032598;28;20384;-77
2021/10/16 00:31:50;;;;;;;24.23;7.65;;;5.80;99.90;;;;;;5030248;28;20409;-76
2021/10/16 00:34:16;;;;;;;22.20;7.43;;;5.80;99.90;;;;;;5034375;28;20447;-77
2021/10/16 00:36:42;;;;;;;25.65;7.43;;;5.90;99.90;;;;;;5028491;28;20766;-80
2021/10/16 00:39:07;;;;;;;19.63;6.70;;;5.80;99.90;;;;;;5019424;28;20412;-79
2021/10/16 00:41:33;;;;;;;19.55;6.82;;;5.80;99.90;;;;;;5022555;28;20416;-78
2021/10/16 00:44:18;;;;;;;20.88;7.20;;;5.70;99.90;;;;;;5023538;28;20393;-79
2021/10/16 00:46:45;;;;;;;18.75;6.20;;;5.60;99.90;;;;;;5035192;28;20408;-76
2021/10/16 00:49:11;;;;;;;19.13;6.28;;;5.60;99.90;;;;;;5033680;28;20436;-74
2021/10/16 00:51:38;;;;;;;17.63;5.97;;;5.50;99.90;;;;;;5034575;28;20408;-78
2021/10/16 00:54:07;;;;;;;19.65;6.28;;;5.50;99.90;;;;;;5034665;28;20385;-77
2021/10/16 00:56:33;;;;;;;22.75;6.80;;;5.50;99.90;;;;;;5024594;28;20442;-77
2021/10/16 00:58:59;;;;;;;19.98;6.07;;;5.50;99.90;;;;;;5022485;28;20476;-77
2021/10/16 01:01:25;;;;;;;16.88;6.88;;;5.50;99.90;;;;;;5039667;28;20397;-76
2021/10/16 01:03:50;;;;;;;21.10;6.65;;;5.60;99.90;;;;;;5025768;28;20389;-77
2021/10/16 01:06:16;;;;;;;16.58;6.10;;;5.50;99.90;;;;;;5024845;28;20396;-77
2021/10/16 01:08:41;;;;;;;17.77;6.85;;;5.40;99.90;;;;;;5038300;28;20403;-79
2021/10/16 01:11:07;;;;;;;19.67;6.20;;;5.40;99.90;;;;;;5021409;28;20412;-77
2021/10/16 01:13:33;;;;;;;20.60;7.10;;;5.40;99.90;;;;;;5017804;28;20897;-78
2021/10/16 01:15:59;;;;;;;18.25;6.72;;;5.40;99.90;;;;;;5017322;28;20409;-78
2021/10/16 01:18:25;;;;;;;15.38;6.05;;;5.40;99.90;;;;;;5015990;28;20401;-79
2021/10/16 01:21:06;;;;;;;15.45;6.15;;;5.40;99.90;;;;;;5017600;28;20411;-78
2021/10/16 01:23:35;;;;;;;20.00;6.93;;;5.40;99.90;;;;;;5016695;28;20405;-78
2021/10/16 01:26:04;;;;;;;17.87;7.10;;;5.30;99.90;;;;;;5017193;28;20414;-78
2021/10/16 01:28:30;;;;;;;17.42;6.32;;;5.30;99.90;;;;;;5017219;28;20416;-79
2021/10/16 01:30:56;;;;;;;21.45;7.15;;;5.30;99.90;;;;;;5000074;28;20414;-79
2021/10/16 01:33:26;;;;;;;14.93;5.72;;;5.30;99.90;;;;;;4998568;28;20485;-77
2021/10/16 01:36:03;;;;;;;13.85;6.55;;;5.30;99.90;;;;;;5017232;28;20392;-78
2021/10/16 01:38:30;;;;;;;19.60;6.32;;;5.20;99.90;;;;;;4997698;28;20429;-77
2021/10/16 01:40:56;;;;;;;25.83;6.63;;;5.30;99.90;;;;;;5005724;28;20385;-78
2021/10/16 01:43:22;;;;;;;23.45;6.70;;;5.40;99.90;;;;;;5015436;28;20917;-78
2021/10/16 01:45:51;;;;;;;19.87;6.07;;;5.40;99.90;;;;;;5015095;28;20512;-78
2021/10/16 01:48:21;;;;;;;19.27;6.25;;;5.30;99.90;;;;;;5013378;28;20408;-78
2021/10/16 01:50:48;;;;;;;22.08;6.10;;;5.30;99.90;;;;;;5021593;28;20901;-77
2021/10/16 01:53:13;;;;;;;18.60;5.40;;;5.30;99.90;;;;;;5030716;28;20401;-75
2021/10/16 01:55:39;;;;;;;19.17;6.00;;;5.20;99.90;;;;;;5046667;28;20460;-76
2021/10/16 01:58:13;;;;;;;17.20;6.07;;;5.50;99.90;;;;;;5022648;28;20396;-77
2021/10/16 02:00:42;;;;;;;12.43;5.20;;;5.40;99.90;;;;;;5026058;28;20393;-79
2021/10/16 02:03:08;;;;;;;19.27;6.00;;;5.30;99.90;;;;;;5016515;28;20423;-78
2021/10/16 02:05:35;;;;;;;18.47;5.80;;;5.20;99.90;;;;;;5036407;28;20463;-76
2021/10/16 02:08:01;;;;;;;15.20;6.20;;;5.20;99.90;;;;;;5033051;28;20389;-75
2021/10/16 02:10:26;;;;;;;19.55;5.90;;;5.20;99.90;;;;;;5034338;28;20392;-74
2021/10/16 02:12:52;;;;;;;22.30;6.50;;;5.20;99.90;;;;;;5034327;28;20408;-76
2021/10/16 02:15:18;;;;;;;14.37;6.23;;;5.20;99.90;;;;;;5034342;28;20419;-75
2021/10/16 02:17:43;;;;;;;14.63;5.67;;;5.20;99.90;;;;;;5034485;28;20404;-75
2021/10/16 02:20:09;;;;;;;21.37;6.77;;;5.10;99.90;;;;;;5034989;28;20397;-76
2021/10/16 02:22:35;;;;;;;21.85;6.95;;;5.10;99.90;;;;;;5034457;28;20428;-74
2021/10/16 02:25:00;;;;;;;20.92;6.90;;;5.10;99.90;;;;;;5033170;28;20427;-76
2021/10/16 02:27:26;;;;;;;16.02;6.40;;;5.10;99.90;;;;;;5049010;28;20388;-74
2021/10/16 02:29:51;;;;;;;17.20;6.10;;;5.00;99.90;;;;;;5050014;28;20389;-73
2021/10/16 02:32:17;;;;;;;20.47;6.30;;;5.10;99.90;;;;;;5038536;28;20408;-76
2021/10/16 02:34:42;;;;;;;17.83;6.73;;;5.10;99.90;;;;;;5047532;28;20784;-79
2021/10/16 02:37:08;;;;;;;16.40;6.00;;;5.00;99.90;;;;;;5032174;28;20393;-77
2021/10/16 02:40:03;;;;;;;12.00;5.60;;;5.00;99.90;;;;;;5034073;28;20464;-75
2021/10/16 02:42:29;;;;;;;15.90;5.78;;;4.90;99.90;;;;;;5017019;28;20643;-76
2021/10/16 02:44:56;;;;;;;19.17;6.00;;;4.90;99.90;;;;;;5011697;28;20497;-76
2021/10/16 02:47:23;;;;;;;17.35;5.90;;;4.90;99.90;;;;;;5011173;28;20469;-76
2021/10/16 02:49:50;;;;;;;11.93;6.00;;;5.20;99.90;;;;;;5010587;28;20547;-78
2021/10/16 02:52:15;;;;;;;24.27;6.78;;;5.10;99.90;;;;;;5009109;28;20412;-77
2021/10/16 02:54:41;;;;;;;14.93;6.10;;;5.00;99.90;;;;;;4997853;28;20378;-78
2021/10/16 02:57:06;;;;;;;17.83;6.35;;;4.90;99.90;;;;;;5007693;28;20480;-78
2021/10/16 02:59:32;;;;;;;11.93;5.63;;;4.90;99.90;;;;;;5013004;28;20432;-78
2021/10/16 03:01:57;;;;;;;18.05;5.95;;;4.90;99.90;;;;;;5013313;28;20915;-78
2021/10/16 03:04:23;;;;;;;18.00;7.25;;;4.90;99.90;;;;;;5015323;28;20385;-77
2021/10/16 03:06:49;;;;;;;17.15;5.50;;;4.80;99.90;;;;;;5023007;28;20381;-76
2021/10/16 03:09:17;;;;;;;13.63;5.90;;;4.80;99.90;;;;;;5029420;28;20420;-75
2021/10/16 03:11:42;;;;;;;16.88;5.90;;;4.80;99.90;;;;;;5021306;28;20399;-78
2021/10/16 03:14:08;;;;;;;18.58;6.60;;;4.90;99.90;;;;;;5013378;28;20385;-77
2021/10/16 03:16:33;;;;;;;20.88;6.53;;;4.80;99.90;;;;;;5012060;28;20483;-77
2021/10/16 03:18:59;;;;;;;21.65;7.50;;;4.80;99.90;;;;;;5012449;28;20403;-79
2021/10/16 03:21:24;;;;;;;18.30;6.43;;;4.70;99.90;;;;;;5012611;28;20878;-76
2021/10/16 03:23:51;;;;;;;17.70;7.40;;;4.70;99.90;;;;;;5028452;28;20476;-77
2021/10/16 03:26:16;;;;;;;15.32;6.00;;;4.70;99.90;;;;;;5012459;28;20384;-78
2021/10/16 03:28:42;;;;;;;23.70;6.78;;;4.70;99.90;;;;;;5012351;28;20385;-78
2021/10/16 03:31:08;;;;;;;12.60;6.40;;;4.70;99.90;;;;;;5012466;28;20447;-78
2021/10/16 03:33:33;;;;;;;13.47;5.60;;;4.70;99.90;;;;;;5012499;28;20820;-77
2021/10/16 03:36:00;;;;;;;18.33;6.30;;;4.70;99.90;;;;;;5012132;28;20393;-78
2021/10/16 03:38:25;;;;;;;15.82;5.78;;;4.70;99.90;;;;;;5012326;28;20749;-77
2021/10/16 03:40:51;;;;;;;13.00;5.93;;;4.60;99.90;;;;;;5012144;28;20487;-78
2021/10/16 03:43:16;;;;;;;18.00;7.20;;;4.70;99.90;;;;;;5012510;28;20434;-79
2021/10/16 03:45:42;;;;;;;13.23;5.50;;;4.60;99.90;;;;;;5012345;28;20385;-78
2021/10/16 03:48:07;;;;;;;13.57;5.50;;;4.60;99.90;;;;;;5010623;28;20428;-79
2021/10/16 03:50:34;;;;;;;13.10;5.77;;;4.60;99.90;;;;;;5012862;28;20503;-77
2021/10/16 03:53:00;;;;;;;17.27;5.63;;;4.60;99.90;;;;;;5010913;28;20420;-78
2021/10/16 03:55:26;;;;;;;15.88;5.85;;;4.60;99.90;;;;;;5012467;28;20396;-78
2021/10/16 03:57:52;;;;;;;12.30;5.43;;;4.60;99.90;;;;;;5012796;28;20384;-77
2021/10/16 04:00:20;;;;;;;19.52;5.70;;;4.70;99.90;;;;;;5013005;28;20878;-77
2021/10/16 04:02:48;;;;;;;15.48;5.63;;;4.80;99.90;;;;;;5011845;28;20416;-78
2021/10/16 04:05:14;;;;;;;21.70;6.40;;;4.80;99.90;;;;;;5012307;28;20388;-78
2021/10/16 04:07:40;;;;;;;15.43;6.45;;;4.70;99.90;;;;;;5011815;28;20404;-76
2021/10/16 04:10:07;;;;;;;21.67;6.70;;;4.60;99.90;;;;;;5012754;28;20381;-78
2021/10/16 04:12:33;;;;;;;19.80;6.97;;;4.60;99.90;;;;;;5011241;28;20980;-78
2021/10/16 04:14:58;;;;;;;17.92;6.65;;;4.50;99.90;;;;;;5011742;28;20412;-78
2021/10/16 04:17:24;;;;;;;13.80;7.15;;;4.40;99.90;;;;;;5012677;28;20396;-78
2021/10/16 04:19:49;;;;;;;19.80;7.20;;;4.40;99.90;;;;;;5014638;28;20389;-79
2021/10/16 04:22:15;;;;;;;15.30;6.90;;;4.40;99.90;;;;;;5014402;28;20412;-79
2021/10/16 04:24:40;;;;;;;18.23;6.87;;;4.40;99.90;;;;;;5026364;28;20400;-78
2021/10/16 04:27:06;;;;;;;19.30;6.80;;;4.40;99.90;;;;;;5013850;28;20389;-78
2021/10/16 04:29:31;;;;;;;12.93;6.30;;;4.50;99.90;;;;;;5012638;28;20393;-78
2021/10/16 04:31:57;;;;;;;22.07;7.70;;;4.50;99.90;;;;;;5031300;28;20396;-81
2021/10/16 04:34:23;;;;;;;16.60;6.73;;;4.50;99.90;;;;;;5037034;28;20461;-83
2021/10/16 04:36:48;;;;;;;15.13;6.70;;;4.40;99.90;;;;;;5026122;28;20407;-82
2021/10/16 04:39:14;;;;;;;25.55;8.15;;;4.40;99.90;;;;;;5015457;28;20445;-81
2021/10/16 04:41:40;;;;;;;13.05;6.65;;;4.40;99.90;;;;;;5031151;28;20510;-76
2021/10/16 04:44:06;;;;;;;20.00;6.72;;;4.40;99.90;;;;;;5032736;28;20759;-76
2021/10/16 04:46:32;;;;;;;16.80;7.65;;;4.40;99.90;;;;;;5019407;28;20443;-75
2021/10/16 04:48:58;;;;;;;16.67;6.93;;;4.40;99.90;;;;;;5012136;28;20819;-75
2021/10/16 04:51:23;;;;;;;14.65;6.30;;;4.40;99.90;;;;;;5011582;28;20484;-76
2021/10/16 04:53:49;;;;;;;16.48;8.20;;;4.40;99.90;;;;;;5012069;28;20377;-75
2021/10/16 04:56:15;;;;;;;17.07;6.63;;;4.40;99.90;;;;;;5012613;28;20381;-75
2021/10/16 04:58:40;;;;;;;14.73;6.10;;;4.40;99.90;;;;;;5009926;28;20432;-76
2021/10/16 05:01:06;;;;;;;14.80;6.83;;;4.40;99.90;;;;;;5010784;28;20397;-76
2021/10/16 05:03:31;;;;;;;13.63;7.50;;;4.50;99.90;;;;;;5010470;28;20495;-76
2021/10/16 05:05:57;;;;;;;16.83;6.00;;;4.40;99.90;;;;;;5010023;28;20824;-74
2021/10/16 05:08:22;;;;;;;20.50;7.40;;;4.30;99.90;;;;;;5010743;28;20381;-74
2021/10/16 05:10:49;;;;;;;19.52;8.13;;;4.30;99.90;;;;;;5010576;28;21200;-73
2021/10/16 05:13:14;;;;;;;15.82;6.63;;;4.20;99.90;;;;;;5010723;28;20862;-76
2021/10/16 05:15:40;;;;;;;22.13;7.32;;;4.20;99.90;;;;;;5011011;28;20399;-75
2021/10/16 05:18:05;;;;;;;19.55;7.70;;;4.20;99.90;;;;;;5010296;28;20415;-75
2021/10/16 05:20:31;;;;;;;21.08;8.00;;;4.20;99.90;;;;;;5008752;28;20754;-75
2021/10/16 05:22:57;;;;;;;20.73;9.10;;;4.20;99.90;;;;;;5010092;28;20751;-75
2021/10/16 05:25:22;;;;;;;20.80;8.80;;;4.20;99.90;;;;;;5010900;28;20421;-75
2021/10/16 05:27:51;;;;;;;21.90;8.60;;;4.20;99.90;;;;;;5010402;28;20381;-75
2021/10/16 05:30:17;;;;;;;21.60;8.33;;;4.20;99.90;;;;;;5008880;28;20539;-74
2021/10/16 05:32:43;;;;;;;14.68;7.30;;;4.20;99.90;;;;;;5009938;28;20870;-75
2021/10/16 05:35:09;;;;;;;14.98;7.53;;;4.10;99.90;;;;;;5010383;28;20415;-75
2021/10/16 05:37:35;;;;;;;16.60;8.10;;;4.20;99.90;;;;;;5010542;28;20389;-74
2021/10/16 05:40:00;;;;;;;14.87;6.60;;;4.20;99.90;;;;;;5010868;28;20837;-75
2021/10/16 05:42:26;;;;;;;15.63;6.90;;;4.20;99.90;;;;;;5010722;28;20408;-76
2021/10/16 05:44:51;;;;;;;16.58;7.97;;;4.20;99.90;;;;;;5010031;28;20739;-77
2021/10/16 05:47:17;;;;;;;17.60;8.18;;;4.20;99.90;;;;;;5010065;28;20388;-76
2021/10/16 05:49:43;;;;;;;17.05;7.95;;;4.20;99.90;;;;;;5010049;28;20484;-76
2021/10/16 05:52:09;;;;;;;19.20;7.73;;;4.20;99.90;;;;;;5009244;28;20404;-76
2021/10/16 05:54:35;;;;;;;19.58;7.40;;;4.20;99.90;;;;;;5011304;28;20387;-77
2021/10/16 05:57:00;;;;;;;17.40;7.90;;;4.20;99.90;;;;;;5011370;28;20397;-76
2021/10/16 05:59:26;;;;;;;19.70;7.70;;;4.10;99.90;;;;;;5011012;28;20389;-77
2021/10/16 06:01:51;;;;;;;23.23;9.37;;;4.30;99.90;;;;;;5008455;28;20912;-75
2021/10/16 06:04:17;;;;;;;16.73;7.30;;;4.30;99.90;;;;;;5004444;28;20396;-75
2021/10/16 06:06:42;;;;;;;19.85;8.50;;;4.30;99.90;;;;;;5009716;28;20858;-76
2021/10/16 06:09:08;;;;;;;19.90;8.48;;;4.30;99.90;;;;;;5009130;28;20644;-76
2021/10/16 06:11:34;;;;;;;18.60;8.30;;;4.30;99.90;;;;;;5008672;28;20411;-75
2021/10/16 06:14:00;;;;;;;16.60;7.90;;;4.40;99.90;;;;;;5008720;28;20396;-75
2021/10/16 06:16:26;;;;;;;18.33;9.32;;;4.40;99.90;;;;;;5008851;28;20381;-77
2021/10/16 06:18:51;;;;;;;23.80;8.70;;;4.50;99.90;;;;;;5008893;28;20458;-78
2021/10/16 06:21:17;;;;;;;19.80;8.43;;;4.50;99.90;;;;;;4999598;28;20410;-78
2021/10/16 06:23:43;;;;;;;17.00;8.27;;;4.50;99.90;;;;;;4995374;28;20440;-79
2021/10/16 06:26:08;;;;;;;21.42;7.90;;;4.50;99.90;;;;;;5009886;28;20484;-76
2021/10/16 06:28:36;;;;;;;21.58;8.90;;;4.70;99.90;;;;;;5009974;28;20377;-77
2021/10/16 06:31:01;;;;;;;18.90;8.18;;;4.80;99.90;;;;;;5003855;28;20396;-78
2021/10/16 06:33:27;;;;;;;17.23;7.77;;;4.80;99.90;;;;;;5010845;28;20404;-77
2021/10/16 06:35:53;;;;;;;23.73;9.40;;;4.90;99.90;;;;;;5010517;28;20851;-80
2021/10/16 06:38:20;;;;;;;21.50;8.70;;;5.00;99.90;;;;;;5009685;28;20501;-79
2021/10/16 06:40:46;;;;;;;21.60;8.70;;;5.10;99.90;;;;;;5009950;28;20389;-78
2021/10/16 06:43:12;;;;;;;25.15;9.10;;;5.20;99.90;;;;;;5011190;28;20416;-77
2021/10/16 06:45:38;;;;;;;20.93;8.40;;;5.30;99.90;;;;;;5011266;28;20530;-79
2021/10/16 06:48:03;;;;;;;21.83;9.00;;;5.50;99.90;;;;;;5010090;28;20754;-80
2021/10/16 06:50:29;;;;;;;31.60;9.82;;;5.70;99.90;;;;;;5008811;28;20415;-79
2021/10/16 06:52:55;;;;;;;18.58;8.07;;;5.80;99.90;;;;;;5011633;28;20426;-79
2021/10/16 06:55:20;;;;;;;23.27;9.80;;;6.00;99.90;;;;;;5004326;28;20885;-78
2021/10/16 06:57:46;;;;;;;28.98;8.93;;;6.10;99.90;;;;;;5005273;28;20421;-77
2021/10/16 07:00:12;;;;;;;20.57;8.80;;;6.30;99.90;;;;;;5001086;28;20400;-76
2021/10/16 07:02:38;;;;;;;20.67;8.27;;;6.40;99.90;;;;;;5008338;28;20463;-78
2021/10/16 07:05:05;;;;;;;21.40;8.15;;;6.50;99.90;;;;;;5008291;28;20403;-77
2021/10/16 07:07:30;;;;;;;27.88;8.52;;;6.70;97.00;;;;;;5007582;28;20521;-77
2021/10/16 07:09:56;;;;;;;18.60;8.10;;;6.70;93.20;;;;;;5007080;28;20443;-77
2021/10/16 07:12:23;;;;;;;20.63;7.85;;;6.80;91.80;;;;;;5000798;28;20446;-75
2021/10/16 07:14:49;;;;;;;22.10;8.60;;;6.90;92.70;;;;;;5007273;28;20437;-76
2021/10/16 07:17:15;;;;;;;19.65;7.90;;;7.00;89.60;;;;;;5011010;28;20400;-76
2021/10/16 07:19:40;;;;;;;24.17;8.30;;;7.10;88.70;;;;;;5007641;28;20418;-75
2021/10/16 07:22:06;;;;;;;19.75;7.97;;;7.20;86.80;;;;;;5011066;28;20467;-77
2021/10/16 07:24:32;;;;;;;20.90;7.32;;;7.20;84.60;;;;;;5007859;28;20434;-75
2021/10/16 07:26:57;;;;;;;14.90;7.90;;;7.30;82.00;;;;;;5004074;28;20389;-77
2021/10/16 07:29:23;;;;;;;23.03;9.33;;;7.40;79.50;;;;;;5011715;28;20400;-78
2021/10/16 07:31:50;;;;;;;18.83;9.30;;;7.40;75.40;;;;;;5009721;28;20403;-77
2021/10/16 07:34:16;;;;;;;27.40;10.00;;;7.40;76.30;;;;;;4996688;28;20405;-76
2021/10/16 07:36:42;;;;;;;19.25;9.68;;;7.40;77.00;;;;;;5014807;28;20419;-77
2021/10/16 07:39:09;;;;;;;17.25;10.10;;;7.50;78.70;;;;;;5005870;28;20398;-76
2021/10/16 07:41:35;;;;;;;20.20;9.85;;;7.50;75.50;;;;;;5011130;28;20743;-75
2021/10/16 07:44:01;;;;;;;16.83;9.68;;;7.50;73.00;;;;;;5011139;28;20405;-74
2021/10/16 07:46:26;;;;;;;15.55;10.20;;;7.60;74.60;;;;;;5010250;28;20455;-75
2021/10/16 07:48:52;;;;;;;17.75;10.70;;;7.60;74.50;;;;;;5010281;28;20436;-76
2021/10/16 07:51:17;;;;;;;23.40;11.50;;;7.70;71.10;;;;;;5018649;28;20955;-76
2021/10/16 07:53:43;;;;;;;21.13;11.88;;;7.80;71.10;;;;;;5020390;28;20400;-75
2021/10/16 07:56:09;;;;;;;23.10;12.68;;;7.80;72.10;;;;;;5017809;28;20487;-75
2021/10/16 07:58:37;;;;;;;22.60;12.52;;;7.90;72.50;;;;;;5011315;28;20897;-76
2021/10/16 08:01:03;;;;;;;23.65;13.52;;;8.00;67.10;;;;;;5016100;28;20458;-75
2021/10/16 08:03:28;;;;;;;22.37;12.67;;;8.00;68.70;;;;;;5009907;28;20405;-74
2021/10/16 08:05:54;;;;;;;25.23;12.87;;;8.10;67.80;;;;;;5009236;28;20463;-74
2021/10/16 08:08:20;;;;;;;27.23;13.07;;;8.10;65.30;;;;;;5010624;28;20809;-76
2021/10/16 08:10:45;;;;;;;25.60;12.50;;;8.20;64.00;;;;;;5012161;28;20381;-76
2021/10/16 08:13:11;;;;;;;27.50;13.40;;;8.30;61.00;;;;;;5013723;28;20464;-75
2021/10/16 08:15:36;;;;;;;26.53;13.23;;;8.40;61.20;;;;;;5025464;28;20410;-77
2021/10/16 08:18:02;;;;;;;28.13;13.80;;;8.50;59.70;;;;;;5029138;28;20388;-78
2021/10/16 08:20:28;;;;;;;28.63;13.90;;;8.50;59.50;;;;;;5018765;28;20407;-75
2021/10/16 08:22:53;;;;;;;30.50;14.80;;;8.60;59.80;;;;;;5012249;28;20416;-75
2021/10/16 08:25:19;;;;;;;28.03;13.80;;;8.70;60.00;;;;;;5010454;28;20741;-74
2021/10/16 08:27:48;;;;;;;28.80;14.10;;;8.80;59.00;;;;;;5009288;28;20422;-74
2021/10/16 08:30:15;;;;;;;27.75;14.73;;;9.00;57.90;;;;;;5011074;28;20408;-74
2021/10/16 08:32:41;;;;;;;29.50;15.13;;;9.20;56.00;;;;;;5012932;28;20439;-75
2021/10/16 08:35:09;;;;;;;31.38;16.13;;;9.30;54.40;;;;;;5006450;28;20432;-76
2021/10/16 08:37:35;;;;;;;31.05;17.20;;;9.40;52.80;;;;;;5009965;28;20770;-76
2021/10/16 08:40:00;;;;;;;29.83;18.15;;;9.40;52.90;;;;;;5009957;28;20451;-78
2021/10/16 08:42:26;;;;;;;32.67;18.67;;;9.50;53.50;;;;;;5005706;28;20569;-75
2021/10/16 08:44:58;;;;;;;39.43;20.20;;;9.60;53.00;;;;;;5011387;28;20878;-75
2021/10/16 08:47:26;;;;;;;36.75;20.73;;;9.50;51.50;;;;;;5005077;28;20854;-74
2021/10/16 08:49:56;;;;;;;55.13;22.70;;;9.40;52.90;;;;;;5005627;28;20861;-76
2021/10/16 08:52:21;;;;;;;48.67;25.17;;;9.40;54.80;;;;;;5019138;23;20442;-77
2021/10/16 08:54:47;;;;;;;47.70;26.93;;;9.30;54.20;;;;;;4994996;28;20803;-77
2021/10/16 08:57:13;;;;;;;53.20;30.10;;;9.20;54.10;;;;;;4991291;28;20386;-77
2021/10/16 08:59:38;;;;;;;53.93;29.93;;;9.20;55.30;;;;;;4996949;28;20400;-77
2021/10/16 09:02:07;;;;;;;62.77;32.40;;;9.20;55.20;;;;;;4999944;28;20414;-76
2021/10/16 09:04:34;;;;;;;63.83;35.10;;;9.10;55.90;;;;;;4998648;28;20391;-78
2021/10/16 09:07:00;;;;;;;63.10;34.83;;;9.00;56.10;;;;;;4980667;28;20443;-77
2021/10/16 09:09:30;;;;;;;65.53;36.28;;;9.00;57.80;;;;;;4981739;28;20434;-77
2021/10/16 09:11:56;;;;;;;61.08;34.70;;;9.10;57.70;;;;;;4988163;28;20399;-75
2021/10/16 09:14:26;;;;;;;59.08;33.30;;;9.20;57.10;;;;;;4995565;28;20403;-77
2021/10/16 09:17:01;;;;;;;66.05;35.53;;;9.10;57.30;;;;;;5000470;28;20453;-76
2021/10/16 09:19:28;;;;;;;67.70;36.20;;;9.00;58.20;;;;;;4974181;28;20400;-75
2021/10/16 09:21:57;;;;;;;70.63;36.33;;;8.90;59.60;;;;;;4997022;28;20409;-75
2021/10/16 09:24:27;;;;;;;73.72;35.92;;;8.90;59.40;;;;;;4986895;28;20563;-75
2021/10/16 09:26:58;;;;;;;67.55;35.08;;;8.90;59.70;;;;;;4985718;28;20397;-74
2021/10/16 09:29:28;;;;;;;66.28;34.65;;;8.90;60.20;;;;;;4990593;28;20415;-75
2021/10/16 09:32:01;;;;;;;71.43;36.47;;;9.00;60.90;;;;;;4987891;28;20425;-79
2021/10/16 09:34:28;;;;;;;71.72;36.80;;;9.10;61.60;;;;;;4988896;28;20458;-75
2021/10/16 09:37:02;;;;;;;67.78;35.40;;;9.20;61.00;;;;;;4985382;28;20404;-73
2021/10/16 09:39:27;;;;;;;71.97;34.92;;;9.40;61.20;;;;;;4989694;28;20449;-73
2021/10/16 09:41:53;;;;;;;68.73;34.37;;;9.50;58.50;;;;;;4986551;28;20410;-77
2021/10/16 09:44:28;;;;;;;65.23;34.03;;;9.40;56.60;;;;;;4998045;28;20803;-74
2021/10/16 09:47:00;;;;;;;62.95;34.30;;;9.40;57.20;;;;;;4980086;28;20398;-76
2021/10/16 09:49:31;;;;;;;64.07;31.43;;;9.50;57.30;;;;;;5001638;28;20484;-75
2021/10/16 09:51:57;;;;;;;66.55;33.80;;;9.60;55.00;;;;;;4979253;28;20515;-76
2021/10/16 09:54:22;;;;;;;65.05;31.65;;;9.60;55.70;;;;;;4994802;28;20578;-76
2021/10/16 09:56:48;;;;;;;65.23;32.40;;;9.60;55.20;;;;;;4985438;28;20518;-77
2021/10/16 09:59:18;;;;;;;60.92;31.15;;;9.60;57.20;;;;;;4982424;28;20415;-76
2021/10/16 10:01:44;;;;;;;65.38;33.65;;;9.70;56.10;;;;;;4977886;28;20943;-75
2021/10/16 10:04:11;;;;;;;59.95;31.83;;;9.70;54.60;;;;;;4982748;28;20873;-77
2021/10/16 10:06:38;;;;;;;61.53;32.13;;;9.70;54.90;;;;;;4984528;28;20403;-76
2021/10/16 10:09:05;;;;;;;63.60;31.10;;;9.70;54.20;;;;;;4987586;28;20417;-76
2021/10/16 10:11:32;;;;;;;55.30;29.10;;;9.80;53.80;;;;;;5001414;28;20884;-76
2021/10/16 10:13:58;;;;;;;63.13;31.38;;;9.80;53.00;;;;;;4995641;28;20394;-76
2021/10/16 10:16:24;;;;;;;60.38;30.98;;;10.00;53.00;;;;;;4999551;28;20398;-77
2021/10/16 10:18:59;;;;;;;63.60;31.77;;;10.10;52.80;;;;;;4992108;28;20398;-76
2021/10/16 10:21:31;;;;;;;61.20;30.88;;;10.10;51.70;;;;;;4985745;28;20389;-74
2021/10/16 10:23:58;;;;;;;60.80;31.42;;;10.00;52.50;;;;;;4980344;28;20601;-77
2021/10/16 10:26:36;;;;;;;64.22;31.17;;;10.30;52.60;;;;;;4981263;28;20386;-78
2021/10/16 10:29:07;;;;;;;58.58;31.17;;;10.40;51.80;;;;;;4996745;28;20832;-75
2021/10/16 10:31:44;;;;;;;67.65;34.35;;;10.40;51.00;;;;;;4987063;28;20445;-76
2021/10/16 10:34:15;;;;;;;63.00;33.17;;;10.40;50.90;;;;;;4996469;28;20404;-74
2021/10/16 10:36:49;;;;;;;66.30;34.53;;;10.40;50.80;;;;;;4999042;28;20409;-76
2021/10/16 10:39:33;;;;;;;59.83;32.80;;;10.40;51.70;;;;;;4991442;28;20394;-75
2021/10/16 10:42:13;;;;;;;65.05;32.78;;;10.70;51.80;;;;;;4994571;28;20412;-76
2021/10/16 10:44:49;;;;;;;59.60;30.80;;;10.80;51.20;;;;;;4982714;28;20411;-76
2021/10/16 10:47:29;;;;;;;58.63;31.07;;;11.00;49.30;;;;;;4990105;28;20438;-76
2021/10/16 10:50:03;;;;;;;57.40;29.00;;;11.00;49.50;;;;;;4976767;28;20411;-75
2021/10/16 10:53:02;;;;;;;57.85;31.40;;;11.20;47.80;;;;;;4975891;28;20416;-77
2021/10/16 10:55:28;;;;;;;65.03;31.95;;;11.20;47.20;;;;;;4991158;28;20463;-77
2021/10/16 10:58:01;;;;;;;51.25;29.33;;;11.20;46.70;;;;;;4993658;28;20437;-77
2021/10/16 11:00:31;;;;;;;59.67;29.45;;;11.10;46.90;;;;;;4997797;28;20413;-77
2021/10/16 11:02:56;;;;;;;54.03;28.20;;;11.20;46.50;;;;;;4979013;28;20412;-75
2021/10/16 11:05:34;;;;;;;51.37;27.27;;;11.20;46.00;;;;;;4998319;28;20494;-75
2021/10/16 11:08:13;;;;;;;57.13;27.25;;;11.30;46.20;;;;;;4985934;28;21009;-75
2021/10/16 11:10:41;;;;;;;51.47;26.05;;;11.30;46.00;;;;;;4993489;28;20464;-76
2021/10/16 11:13:21;;;;;;;48.72;25.98;;;11.40;45.20;;;;;;4993935;28;20404;-76
2021/10/16 11:15:57;;;;;;;50.80;24.88;;;11.50;45.20;;;;;;4974862;28;20889;-77
2021/10/16 11:18:23;;;;;;;47.05;25.58;;;11.50;44.00;;;;;;5000020;28;20409;-74
2021/10/16 11:20:49;;;;;;;47.20;27.13;;;11.60;44.20;;;;;;4998708;28;20473;-74
2021/10/16 11:23:23;;;;;;;49.50;26.07;;;11.60;44.20;;;;;;4994557;28;20410;-76
2021/10/16 11:26:00;;;;;;;53.00;25.45;;;11.60;43.90;;;;;;4992961;28;20394;-76
2021/10/16 11:28:27;;;;;;;44.53;24.83;;;11.80;43.60;;;;;;4997664;28;20495;-76
2021/10/16 11:30:54;;;;;;;47.33;25.88;;;11.90;43.70;;;;;;4987937;28;20394;-76
2021/10/16 11:33:23;;;;;;;48.60;25.20;;;12.00;41.90;;;;;;4991799;28;20398;-75
2021/10/16 11:35:51;;;;;;;46.00;23.88;;;12.00;41.60;;;;;;4994785;28;20875;-76
2021/10/16 11:38:23;;;;;;;49.15;25.52;;;12.10;41.30;;;;;;4992372;28;20391;-76
2021/10/16 11:40:49;;;;;;;53.65;24.95;;;12.20;41.00;;;;;;4996943;28;20484;-76
2021/10/16 11:43:17;;;;;;;47.17;22.88;;;12.30;40.00;;;;;;4984469;28;20416;-75
2021/10/16 11:45:46;;;;;;;49.55;23.85;;;12.30;39.30;;;;;;4991480;28;20485;-76
2021/10/16 11:48:14;;;;;;;41.25;21.23;;;12.30;38.90;;;;;;4998525;28;20459;-76
2021/10/16 11:50:47;;;;;;;46.38;22.40;;;12.30;38.70;;;;;;5009582;28;20402;-75
2021/10/16 11:53:20;;;;;;;45.35;21.52;;;12.40;39.30;;;;;;5002484;28;20413;-76
2021/10/16 11:56:00;;;;;;;45.67;21.60;;;12.60;38.60;;;;;;4983254;28;20419;-78
2021/10/16 11:58:29;;;;;;;43.65;20.50;;;12.90;38.80;;;;;;4994344;28;20974;-77
2021/10/16 12:00:56;;;;;;;48.30;20.17;;;13.10;36.80;;;;;;4994188;28;20440;-76
2021/10/16 12:03:43;;;;;;;42.10;18.80;;;13.00;35.10;;;;;;4992519;28;20416;-77
2021/10/16 12:06:11;;;;;;;35.25;16.65;;;12.80;35.10;;;;;;4992632;28;20395;-76
2021/10/16 12:08:50;;;;;;;35.92;15.85;;;12.90;34.80;;;;;;4987208;28;20449;-77
2021/10/16 12:11:26;;;;;;;39.00;14.27;;;13.00;33.70;;;;;;5000912;28;20477;-78
2021/10/16 12:14:05;;;;;;;34.35;14.00;;;13.10;32.70;;;;;;4997056;28;20437;-78
2021/10/16 12:16:35;;;;;;;26.23;10.52;;;13.00;32.70;;;;;;4997220;28;20399;-78
2021/10/16 12:19:09;;;;;;;24.98;8.50;;;13.10;30.40;;;;;;4998865;28;20390;-76
2021/10/16 12:21:37;;;;;;;27.20;8.98;;;13.10;28.30;;;;;;5002084;28;20402;-76
2021/10/16 12:24:11;;;;;;;27.63;11.00;;;13.20;27.70;;;;;;4995450;28;20410;-77
2021/10/16 12:26:38;;;;;;;31.03;10.97;;;13.60;26.20;;;;;;4993697;28;20397;-75
2021/10/16 12:29:23;;;;;;;28.73;9.63;;;13.60;26.60;;;;;;4991524;28;20473;-73
2021/10/16 12:31:51;;;;;;;25.00;9.75;;;13.50;26.80;;;;;;4971085;28;20895;-76
2021/10/16 12:34:21;;;;;;;26.50;10.00;;;13.50;26.60;;;;;;4972106;28;20396;-75
2021/10/16 12:37:07;;;;;;;24.88;8.15;;;13.70;25.80;;;;;;4976496;28;20390;-75
2021/10/16 12:39:40;;;;;;;16.60;6.65;;;14.20;21.40;;;;;;4992637;28;20386;-75
2021/10/16 12:42:14;;;;;;;20.90;6.40;;;14.30;19.20;;;;;;5001418;28;20434;-75